sensor_id;sensor_type;location;lat;lon;timestamp;temperature;humidity
913;DHT22;443;51.448;7.028;2022-10-04T00:02:05;16.00;82.00
913;DHT22;443;51.448;7.028;2022-10-04T00:04:45;16.00;82.50
913;DHT22;443;51.448;7.028;2022-10-04T00:07:17;16.00;82.00
913;DHT22;443;51.448;7.028;2022-10-04T00:09:47;16.10;81.00
913;DHT22;443;51.448;7.028;2022-10-04T00:12:19;16.00;80.70
913;DHT22;443;51.448;7.028;2022-10-04T00:14:48;16.00;80.70
913;DHT22;443;51.448;7.028;2022-10-04T00:17:22;16.00;81.10
913;DHT22;443;51.448;7.028;2022-10-04T00:19:53;16.00;81.20
913;DHT22;443;51.448;7.028;2022-10-04T00:22:23;15.90;80.10
913;DHT22;443;51.448;7.028;2022-10-04T00:31:22;15.90;81.50
913;DHT22;443;51.448;7.028;2022-10-04T00:33:51;15.90;81.00
913;DHT22;443;51.448;7.028;2022-10-04T00:36:45;15.80;79.70
913;DHT22;443;51.448;7.028;2022-10-04T00:42:17;15.80;81.30
913;DHT22;443;51.448;7.028;2022-10-04T00:44:49;15.80;81.40
913;DHT22;443;51.448;7.028;2022-10-04T00:47:28;15.80;81.10
913;DHT22;443;51.448;7.028;2022-10-04T00:50:02;15.90;82.00
913;DHT22;443;51.448;7.028;2022-10-04T00:52:36;16.00;81.80
913;DHT22;443;51.448;7.028;2022-10-04T00:55:09;16.00;81.80
913;DHT22;443;51.448;7.028;2022-10-04T00:57:46;15.90;81.20
913;DHT22;443;51.448;7.028;2022-10-04T01:00:17;16.00;82.40
913;DHT22;443;51.448;7.028;2022-10-04T01:02:51;15.90;80.10
913;DHT22;443;51.448;7.028;2022-10-04T01:05:20;15.80;80.50
913;DHT22;443;51.448;7.028;2022-10-04T01:07:55;15.70;80.40
913;DHT22;443;51.448;7.028;2022-10-04T01:10:26;15.70;82.40
913;DHT22;443;51.448;7.028;2022-10-04T01:12:58;15.80;82.10
913;DHT22;443;51.448;7.028;2022-10-04T01:15:33;15.80;81.80
913;DHT22;443;51.448;7.028;2022-10-04T01:18:07;15.70;81.80
913;DHT22;443;51.448;7.028;2022-10-04T01:20:37;15.80;81.70
913;DHT22;443;51.448;7.028;2022-10-04T01:23:08;15.90;82.70
913;DHT22;443;51.448;7.028;2022-10-04T01:25:43;16.10;82.00
913;DHT22;443;51.448;7.028;2022-10-04T01:28:11;16.10;82.00
913;DHT22;443;51.448;7.028;2022-10-04T01:30:38;16.30;82.70
913;DHT22;443;51.448;7.028;2022-10-04T01:33:05;16.30;82.00
913;DHT22;443;51.448;7.028;2022-10-04T01:35:32;16.20;80.50
913;DHT22;443;51.448;7.028;2022-10-04T01:38:01;15.90;79.60
913;DHT22;443;51.448;7.028;2022-10-04T01:40:33;16.00;82.70
913;DHT22;443;51.448;7.028;2022-10-04T01:43:03;16.20;81.50
913;DHT22;443;51.448;7.028;2022-10-04T01:45:35;16.10;81.90
913;DHT22;443;51.448;7.028;2022-10-04T01:48:06;16.00;82.20
913;DHT22;443;51.448;7.028;2022-10-04T01:50:38;16.20;81.60
913;DHT22;443;51.448;7.028;2022-10-04T01:53:11;16.10;81.60
913;DHT22;443;51.448;7.028;2022-10-04T01:55:44;16.20;81.70
913;DHT22;443;51.448;7.028;2022-10-04T01:58:17;16.10;81.10
913;DHT22;443;51.448;7.028;2022-10-04T02:00:50;16.10;81.20
913;DHT22;443;51.448;7.028;2022-10-04T02:03:21;16.30;81.90
913;DHT22;443;51.448;7.028;2022-10-04T02:05:53;16.10;81.10
913;DHT22;443;51.448;7.028;2022-10-04T02:08:25;16.00;79.80
913;DHT22;443;51.448;7.028;2022-10-04T02:10:55;16.10;81.20
913;DHT22;443;51.448;7.028;2022-10-04T02:13:23;16.10;80.80
913;DHT22;443;51.448;7.028;2022-10-04T02:15:54;16.10;82.00
913;DHT22;443;51.448;7.028;2022-10-04T02:18:22;16.10;80.90
913;DHT22;443;51.448;7.028;2022-10-04T02:20:51;16.10;81.40
913;DHT22;443;51.448;7.028;2022-10-04T02:23:20;16.00;82.20
913;DHT22;443;51.448;7.028;2022-10-04T02:25:48;16.10;81.50
913;DHT22;443;51.448;7.028;2022-10-04T02:28:17;16.20;82.30
913;DHT22;443;51.448;7.028;2022-10-04T02:30:47;16.00;81.60
913;DHT22;443;51.448;7.028;2022-10-04T02:33:29;16.00;82.60
913;DHT22;443;51.448;7.028;2022-10-04T02:35:56;16.00;82.00
913;DHT22;443;51.448;7.028;2022-10-04T02:38:27;16.00;81.60
913;DHT22;443;51.448;7.028;2022-10-04T02:40:58;16.00;81.50
913;DHT22;443;51.448;7.028;2022-10-04T02:43:34;16.00;81.70
913;DHT22;443;51.448;7.028;2022-10-04T02:46:07;16.00;81.00
913;DHT22;443;51.448;7.028;2022-10-04T02:48:43;16.00;81.80
913;DHT22;443;51.448;7.028;2022-10-04T02:51:18;16.00;81.90
913;DHT22;443;51.448;7.028;2022-10-04T02:53:59;16.00;82.20
913;DHT22;443;51.448;7.028;2022-10-04T02:56:26;15.90;81.20
913;DHT22;443;51.448;7.028;2022-10-04T02:58:59;15.90;82.10
913;DHT22;443;51.448;7.028;2022-10-04T03:01:35;16.00;81.80
913;DHT22;443;51.448;7.028;2022-10-04T03:04:02;15.90;81.20
913;DHT22;443;51.448;7.028;2022-10-04T03:06:31;15.90;81.10
913;DHT22;443;51.448;7.028;2022-10-04T03:09:01;15.90;81.40
913;DHT22;443;51.448;7.028;2022-10-04T03:14:03;15.80;82.10
913;DHT22;443;51.448;7.028;2022-10-04T03:16:34;15.80;81.70
913;DHT22;443;51.448;7.028;2022-10-04T03:19:01;15.80;82.20
913;DHT22;443;51.448;7.028;2022-10-04T03:21:30;15.80;80.90
913;DHT22;443;51.448;7.028;2022-10-04T03:23:58;15.90;82.70
913;DHT22;443;51.448;7.028;2022-10-04T03:26:28;15.90;81.80
913;DHT22;443;51.448;7.028;2022-10-04T03:28:56;16.00;82.20
913;DHT22;443;51.448;7.028;2022-10-04T03:31:26;16.00;81.50
913;DHT22;443;51.448;7.028;2022-10-04T03:33:54;16.00;82.10
913;DHT22;443;51.448;7.028;2022-10-04T03:36:22;16.00;81.60
913;DHT22;443;51.448;7.028;2022-10-04T03:38:52;16.00;82.20
913;DHT22;443;51.448;7.028;2022-10-04T03:41:21;16.10;81.90
913;DHT22;443;51.448;7.028;2022-10-04T03:43:49;16.10;81.80
913;DHT22;443;51.448;7.028;2022-10-04T03:46:17;16.20;82.60
913;DHT22;443;51.448;7.028;2022-10-04T03:48:48;16.10;81.10
913;DHT22;443;51.448;7.028;2022-10-04T03:51:17;16.00;81.70
913;DHT22;443;51.448;7.028;2022-10-04T03:53:47;16.10;81.80
913;DHT22;443;51.448;7.028;2022-10-04T03:56:18;16.10;81.80
913;DHT22;443;51.448;7.028;2022-10-04T03:58:46;16.00;81.30
913;DHT22;443;51.448;7.028;2022-10-04T04:01:27;16.00;80.80
913;DHT22;443;51.448;7.028;2022-10-04T04:04:05;16.00;81.50
913;DHT22;443;51.448;7.028;2022-10-04T04:06:39;16.00;82.40
913;DHT22;443;51.448;7.028;2022-10-04T04:09:08;16.10;81.90
913;DHT22;443;51.448;7.028;2022-10-04T04:11:42;16.00;80.40
913;DHT22;443;51.448;7.028;2022-10-04T04:14:15;16.00;81.00
913;DHT22;443;51.448;7.028;2022-10-04T04:16:46;15.90;80.70
913;DHT22;443;51.448;7.028;2022-10-04T04:19:17;15.90;80.80
913;DHT22;443;51.448;7.028;2022-10-04T04:21:46;15.90;81.00
913;DHT22;443;51.448;7.028;2022-10-04T04:24:18;15.90;80.60
913;DHT22;443;51.448;7.028;2022-10-04T04:26:53;15.90;81.10
913;DHT22;443;51.448;7.028;2022-10-04T04:29:24;15.90;81.00
913;DHT22;443;51.448;7.028;2022-10-04T04:31:57;16.00;82.10
913;DHT22;443;51.448;7.028;2022-10-04T04:34:28;16.00;81.00
913;DHT22;443;51.448;7.028;2022-10-04T04:36:57;16.00;81.20
913;DHT22;443;51.448;7.028;2022-10-04T04:39:26;16.10;81.90
913;DHT22;443;51.448;7.028;2022-10-04T04:42:11;16.10;81.40
913;DHT22;443;51.448;7.028;2022-10-04T04:44:45;16.10;81.20
913;DHT22;443;51.448;7.028;2022-10-04T04:47:24;16.10;80.80
913;DHT22;443;51.448;7.028;2022-10-04T04:49:54;16.00;80.90
913;DHT22;443;51.448;7.028;2022-10-04T04:52:25;16.00;80.20
913;DHT22;443;51.448;7.028;2022-10-04T04:54:53;16.00;81.10
913;DHT22;443;51.448;7.028;2022-10-04T04:57:21;16.00;80.70
913;DHT22;443;51.448;7.028;2022-10-04T04:59:51;16.00;81.60
913;DHT22;443;51.448;7.028;2022-10-04T05:02:32;16.00;81.80
913;DHT22;443;51.448;7.028;2022-10-04T05:05:18;16.00;81.70
913;DHT22;443;51.448;7.028;2022-10-04T05:07:45;16.10;82.40
913;DHT22;443;51.448;7.028;2022-10-04T05:10:20;16.10;80.80
913;DHT22;443;51.448;7.028;2022-10-04T05:12:47;16.00;81.00
913;DHT22;443;51.448;7.028;2022-10-04T05:15:14;16.00;81.20
913;DHT22;443;51.448;7.028;2022-10-04T05:17:41;16.10;81.80
913;DHT22;443;51.448;7.028;2022-10-04T05:20:11;16.10;80.50
913;DHT22;443;51.448;7.028;2022-10-04T05:22:44;16.10;81.50
913;DHT22;443;51.448;7.028;2022-10-04T05:25:15;16.00;80.20
913;DHT22;443;51.448;7.028;2022-10-04T05:27:47;16.20;82.20
913;DHT22;443;51.448;7.028;2022-10-04T05:30:25;16.10;80.60
913;DHT22;443;51.448;7.028;2022-10-04T05:32:59;16.10;80.70
913;DHT22;443;51.448;7.028;2022-10-04T05:35:29;16.10;80.40
913;DHT22;443;51.448;7.028;2022-10-04T05:38:05;16.20;80.80
913;DHT22;443;51.448;7.028;2022-10-04T05:40:42;16.10;80.70
913;DHT22;443;51.448;7.028;2022-10-04T05:43:20;16.10;80.90
913;DHT22;443;51.448;7.028;2022-10-04T05:46:10;16.20;81.50
913;DHT22;443;51.448;7.028;2022-10-04T05:48:39;16.10;81.10
913;DHT22;443;51.448;7.028;2022-10-04T05:51:17;16.10;80.90
913;DHT22;443;51.448;7.028;2022-10-04T05:53:44;16.10;80.80
913;DHT22;443;51.448;7.028;2022-10-04T05:59:22;16.00;81.10
913;DHT22;443;51.448;7.028;2022-10-04T06:01:59;16.00;81.40
913;DHT22;443;51.448;7.028;2022-10-04T06:04:44;16.10;81.50
913;DHT22;443;51.448;7.028;2022-10-04T06:07:21;16.00;80.70
913;DHT22;443;51.448;7.028;2022-10-04T06:10:01;15.90;80.20
913;DHT22;443;51.448;7.028;2022-10-04T06:12:41;15.90;81.30
913;DHT22;443;51.448;7.028;2022-10-04T06:15:36;16.00;80.80
913;DHT22;443;51.448;7.028;2022-10-04T06:18:23;15.90;81.20
913;DHT22;443;51.448;7.028;2022-10-04T06:21:18;15.80;80.80
913;DHT22;443;51.448;7.028;2022-10-04T06:23:52;15.80;81.40
913;DHT22;443;51.448;7.028;2022-10-04T06:26:21;15.90;81.60
913;DHT22;443;51.448;7.028;2022-10-04T06:28:53;15.90;81.70
913;DHT22;443;51.448;7.028;2022-10-04T06:34:44;16.00;82.00
913;DHT22;443;51.448;7.028;2022-10-04T06:37:41;16.00;81.30
913;DHT22;443;51.448;7.028;2022-10-04T06:40:36;16.00;81.60
913;DHT22;443;51.448;7.028;2022-10-04T06:43:25;15.90;80.90
913;DHT22;443;51.448;7.028;2022-10-04T06:46:07;16.00;81.20
913;DHT22;443;51.448;7.028;2022-10-04T06:49:01;16.10;81.10
913;DHT22;443;51.448;7.028;2022-10-04T06:51:41;16.10;81.80
913;DHT22;443;51.448;7.028;2022-10-04T06:54:21;16.30;82.50
913;DHT22;443;51.448;7.028;2022-10-04T06:57:16;16.30;81.90
913;DHT22;443;51.448;7.028;2022-10-04T07:00:05;16.10;81.10
913;DHT22;443;51.448;7.028;2022-10-04T07:02:39;16.10;82.10
913;DHT22;443;51.448;7.028;2022-10-04T07:05:17;16.10;81.30
913;DHT22;443;51.448;7.028;2022-10-04T07:07:48;16.20;82.00
913;DHT22;443;51.448;7.028;2022-10-04T07:10:33;16.20;80.60
913;DHT22;443;51.448;7.028;2022-10-04T07:13:27;16.20;81.30
913;DHT22;443;51.448;7.028;2022-10-04T07:16:01;16.20;80.90
913;DHT22;443;51.448;7.028;2022-10-04T07:18:34;16.30;81.90
913;DHT22;443;51.448;7.028;2022-10-04T07:21:06;16.20;81.50
913;DHT22;443;51.448;7.028;2022-10-04T07:23:37;16.30;81.60
913;DHT22;443;51.448;7.028;2022-10-04T07:26:06;16.30;80.70
913;DHT22;443;51.448;7.028;2022-10-04T07:28:42;16.20;81.40
913;DHT22;443;51.448;7.028;2022-10-04T07:31:30;16.30;81.90
913;DHT22;443;51.448;7.028;2022-10-04T07:34:00;16.50;82.20
913;DHT22;443;51.448;7.028;2022-10-04T07:36:36;16.50;80.00
913;DHT22;443;51.448;7.028;2022-10-04T07:39:10;16.50;80.90
913;DHT22;443;51.448;7.028;2022-10-04T07:41:47;16.50;80.20
913;DHT22;443;51.448;7.028;2022-10-04T07:44:25;16.40;81.10
913;DHT22;443;51.448;7.028;2022-10-04T07:46:57;16.50;81.50
913;DHT22;443;51.448;7.028;2022-10-04T07:49:26;16.50;81.20
913;DHT22;443;51.448;7.028;2022-10-04T07:54:59;16.60;81.00
913;DHT22;443;51.448;7.028;2022-10-04T07:57:32;16.60;81.00
913;DHT22;443;51.448;7.028;2022-10-04T08:00:07;16.50;79.40
913;DHT22;443;51.448;7.028;2022-10-04T08:02:44;16.60;80.90
913;DHT22;443;51.448;7.028;2022-10-04T08:05:20;16.60;79.30
913;DHT22;443;51.448;7.028;2022-10-04T08:08:03;16.40;80.00
913;DHT22;443;51.448;7.028;2022-10-04T08:10:39;16.60;81.20
913;DHT22;443;51.448;7.028;2022-10-04T08:13:18;16.70;81.40
913;DHT22;443;51.448;7.028;2022-10-04T08:15:49;16.80;81.10
913;DHT22;443;51.448;7.028;2022-10-04T08:18:26;16.80;80.80
913;DHT22;443;51.448;7.028;2022-10-04T08:21:00;16.80;80.80
913;DHT22;443;51.448;7.028;2022-10-04T08:23:42;16.80;78.90
913;DHT22;443;51.448;7.028;2022-10-04T08:26:26;16.70;80.20
913;DHT22;443;51.448;7.028;2022-10-04T08:29:05;16.80;80.90
913;DHT22;443;51.448;7.028;2022-10-04T08:32:03;16.80;80.80
913;DHT22;443;51.448;7.028;2022-10-04T08:34:41;16.80;80.20
913;DHT22;443;51.448;7.028;2022-10-04T08:37:18;16.80;80.20
913;DHT22;443;51.448;7.028;2022-10-04T08:40:00;16.80;79.00
913;DHT22;443;51.448;7.028;2022-10-04T08:42:55;16.90;80.80
913;DHT22;443;51.448;7.028;2022-10-04T08:46:07;16.90;80.60
913;DHT22;443;51.448;7.028;2022-10-04T08:55:36;16.90;80.40
913;DHT22;443;51.448;7.028;2022-10-04T08:58:20;16.90;80.00
913;DHT22;443;51.448;7.028;2022-10-04T09:01:37;17.00;80.40
913;DHT22;443;51.448;7.028;2022-10-04T09:07:47;17.00;80.50
913;DHT22;443;51.448;7.028;2022-10-04T09:10:34;17.00;80.20
913;DHT22;443;51.448;7.028;2022-10-04T09:16:02;17.10;80.00
913;DHT22;443;51.448;7.028;2022-10-04T09:18:51;17.10;80.20
913;DHT22;443;51.448;7.028;2022-10-04T09:21:27;17.10;80.10
913;DHT22;443;51.448;7.028;2022-10-04T09:27:26;17.10;80.60
913;DHT22;443;51.448;7.028;2022-10-04T09:30:09;17.00;74.90
913;DHT22;443;51.448;7.028;2022-10-04T09:32:56;17.10;79.70
913;DHT22;443;51.448;7.028;2022-10-04T09:35:51;17.10;78.50
913;DHT22;443;51.448;7.028;2022-10-04T09:38:32;17.10;79.40
913;DHT22;443;51.448;7.028;2022-10-04T09:41:31;17.10;79.70
913;DHT22;443;51.448;7.028;2022-10-04T09:44:26;17.10;79.80
913;DHT22;443;51.448;7.028;2022-10-04T09:47:15;17.10;78.80
913;DHT22;443;51.448;7.028;2022-10-04T09:50:24;17.10;77.30
913;DHT22;443;51.448;7.028;2022-10-04T09:53:23;17.10;74.70
913;DHT22;443;51.448;7.028;2022-10-04T09:56:08;17.20;77.90
913;DHT22;443;51.448;7.028;2022-10-04T09:59:01;17.10;76.20
913;DHT22;443;51.448;7.028;2022-10-04T10:01:40;17.20;79.70
913;DHT22;443;51.448;7.028;2022-10-04T10:04:27;17.20;78.00
913;DHT22;443;51.448;7.028;2022-10-04T10:07:12;17.20;79.50
913;DHT22;443;51.448;7.028;2022-10-04T10:09:50;17.20;77.60
913;DHT22;443;51.448;7.028;2022-10-04T10:15:59;17.20;74.80
913;DHT22;443;51.448;7.028;2022-10-04T10:18:42;17.10;76.20
913;DHT22;443;51.448;7.028;2022-10-04T10:21:30;17.20;76.80
913;DHT22;443;51.448;7.028;2022-10-04T10:27:08;17.20;75.70
913;DHT22;443;51.448;7.028;2022-10-04T10:30:13;17.20;75.90
913;DHT22;443;51.448;7.028;2022-10-04T10:36:07;17.20;77.90
913;DHT22;443;51.448;7.028;2022-10-04T10:38:49;17.20;75.20
913;DHT22;443;51.448;7.028;2022-10-04T10:41:36;17.30;79.10
913;DHT22;443;51.448;7.028;2022-10-04T10:44:21;17.30;78.20
913;DHT22;443;51.448;7.028;2022-10-04T10:47:21;17.30;77.90
913;DHT22;443;51.448;7.028;2022-10-04T10:50:05;17.30;77.90
913;DHT22;443;51.448;7.028;2022-10-04T10:53:15;17.30;78.20
913;DHT22;443;51.448;7.028;2022-10-04T10:56:17;17.30;74.40
913;DHT22;443;51.448;7.028;2022-10-04T11:01:57;17.30;77.30
913;DHT22;443;51.448;7.028;2022-10-04T11:04:47;17.30;78.20
913;DHT22;443;51.448;7.028;2022-10-04T11:07:46;17.30;76.20
913;DHT22;443;51.448;7.028;2022-10-04T11:14:00;17.40;78.50
913;DHT22;443;51.448;7.028;2022-10-04T11:17:03;17.40;76.60
913;DHT22;443;51.448;7.028;2022-10-04T11:23:10;17.40;78.20
913;DHT22;443;51.448;7.028;2022-10-04T11:28:42;17.40;78.60
913;DHT22;443;51.448;7.028;2022-10-04T11:31:39;17.40;78.30
913;DHT22;443;51.448;7.028;2022-10-04T11:37:45;17.40;76.70
913;DHT22;443;51.448;7.028;2022-10-04T11:40:24;17.50;77.70
913;DHT22;443;51.448;7.028;2022-10-04T11:46:02;17.50;74.60
913;DHT22;443;51.448;7.028;2022-10-04T11:48:39;17.50;77.20
913;DHT22;443;51.448;7.028;2022-10-04T11:51:50;17.50;76.50
913;DHT22;443;51.448;7.028;2022-10-04T11:55:00;17.60;74.30
913;DHT22;443;51.448;7.028;2022-10-04T11:57:36;17.60;76.60
913;DHT22;443;51.448;7.028;2022-10-04T12:00:10;17.50;76.80
913;DHT22;443;51.448;7.028;2022-10-04T12:02:55;17.50;78.10
913;DHT22;443;51.448;7.028;2022-10-04T12:05:39;17.60;76.20
913;DHT22;443;51.448;7.028;2022-10-04T12:08:30;17.60;74.10
913;DHT22;443;51.448;7.028;2022-10-04T12:14:36;17.60;74.50
913;DHT22;443;51.448;7.028;2022-10-04T12:20:40;17.50;77.90
913;DHT22;443;51.448;7.028;2022-10-04T12:26:29;17.60;74.10
913;DHT22;443;51.448;7.028;2022-10-04T12:29:35;17.60;75.30
913;DHT22;443;51.448;7.028;2022-10-04T12:32:10;17.70;76.10
913;DHT22;443;51.448;7.028;2022-10-04T12:34:49;17.60;77.60
913;DHT22;443;51.448;7.028;2022-10-04T12:37:23;17.70;76.20
913;DHT22;443;51.448;7.028;2022-10-04T12:40:13;17.70;77.70
913;DHT22;443;51.448;7.028;2022-10-04T12:42:50;17.60;77.60
913;DHT22;443;51.448;7.028;2022-10-04T12:45:27;17.60;78.00
913;DHT22;443;51.448;7.028;2022-10-04T12:48:07;17.60;76.70
913;DHT22;443;51.448;7.028;2022-10-04T12:50:48;17.80;73.60
913;DHT22;443;51.448;7.028;2022-10-04T12:53:25;17.70;77.20
913;DHT22;443;51.448;7.028;2022-10-04T12:56:04;17.70;77.50
913;DHT22;443;51.448;7.028;2022-10-04T12:58:42;17.70;76.10
913;DHT22;443;51.448;7.028;2022-10-04T13:01:20;17.80;74.50
913;DHT22;443;51.448;7.028;2022-10-04T13:04:08;17.80;76.90
913;DHT22;443;51.448;7.028;2022-10-04T13:06:40;17.80;76.40
913;DHT22;443;51.448;7.028;2022-10-04T13:09:14;17.80;77.00
913;DHT22;443;51.448;7.028;2022-10-04T13:12:00;17.70;77.40
913;DHT22;443;51.448;7.028;2022-10-04T13:15:13;17.90;77.70
913;DHT22;443;51.448;7.028;2022-10-04T13:17:53;17.80;77.00
913;DHT22;443;51.448;7.028;2022-10-04T13:20:34;17.90;76.10
913;DHT22;443;51.448;7.028;2022-10-04T13:23:07;17.90;75.00
913;DHT22;443;51.448;7.028;2022-10-04T13:25:52;17.90;76.50
913;DHT22;443;51.448;7.028;2022-10-04T13:28:26;18.00;76.40
913;DHT22;443;51.448;7.028;2022-10-04T13:30:59;18.00;75.80
913;DHT22;443;51.448;7.028;2022-10-04T13:33:34;18.00;76.00
913;DHT22;443;51.448;7.028;2022-10-04T13:36:08;18.00;76.60
913;DHT22;443;51.448;7.028;2022-10-04T13:39:00;18.00;76.40
913;DHT22;443;51.448;7.028;2022-10-04T13:41:53;18.10;76.20
913;DHT22;443;51.448;7.028;2022-10-04T13:44:40;18.00;76.20
913;DHT22;443;51.448;7.028;2022-10-04T13:50:27;18.20;75.80
913;DHT22;443;51.448;7.028;2022-10-04T13:53:05;18.20;75.90
913;DHT22;443;51.448;7.028;2022-10-04T13:55:58;18.30;75.30
913;DHT22;443;51.448;7.028;2022-10-04T13:58:52;18.40;76.00
913;DHT22;443;51.448;7.028;2022-10-04T14:07:35;18.70;74.10
913;DHT22;443;51.448;7.028;2022-10-04T14:10:49;18.60;74.10
913;DHT22;443;51.448;7.028;2022-10-04T14:16:37;18.80;73.40
913;DHT22;443;51.448;7.028;2022-10-04T14:19:32;18.90;73.00
913;DHT22;443;51.448;7.028;2022-10-04T14:22:24;19.10;72.70
913;DHT22;443;51.448;7.028;2022-10-04T14:28:38;19.00;73.00
913;DHT22;443;51.448;7.028;2022-10-04T14:31:42;19.10;72.40
913;DHT22;443;51.448;7.028;2022-10-04T14:34:44;19.20;72.40
913;DHT22;443;51.448;7.028;2022-10-04T14:40:57;19.30;72.00
913;DHT22;443;51.448;7.028;2022-10-04T14:43:58;19.40;71.40
913;DHT22;443;51.448;7.028;2022-10-04T14:46:42;19.30;71.60
913;DHT22;443;51.448;7.028;2022-10-04T14:49:19;19.20;71.80
913;DHT22;443;51.448;7.028;2022-10-04T14:52:02;19.10;72.30
913;DHT22;443;51.448;7.028;2022-10-04T14:54:43;19.10;72.40
913;DHT22;443;51.448;7.028;2022-10-04T14:57:16;19.00;72.50
913;DHT22;443;51.448;7.028;2022-10-04T15:00:10;19.10;72.40
913;DHT22;443;51.448;7.028;2022-10-04T15:03:12;19.20;71.90
913;DHT22;443;51.448;7.028;2022-10-04T15:06:04;19.30;71.90
913;DHT22;443;51.448;7.028;2022-10-04T15:11:38;19.30;71.40
913;DHT22;443;51.448;7.028;2022-10-04T15:14:26;19.40;71.30
913;DHT22;443;51.448;7.028;2022-10-04T15:16:59;19.40;71.20
913;DHT22;443;51.448;7.028;2022-10-04T15:19:30;19.40;71.30
913;DHT22;443;51.448;7.028;2022-10-04T15:22:06;19.40;71.10
913;DHT22;443;51.448;7.028;2022-10-04T15:24:46;19.40;71.10
913;DHT22;443;51.448;7.028;2022-10-04T15:27:45;19.40;70.90
913;DHT22;443;51.448;7.028;2022-10-04T15:30:34;19.40;71.20
913;DHT22;443;51.448;7.028;2022-10-04T15:33:26;19.30;71.10
913;DHT22;443;51.448;7.028;2022-10-04T15:36:24;19.30;71.40
913;DHT22;443;51.448;7.028;2022-10-04T15:38:56;19.20;71.70
913;DHT22;443;51.448;7.028;2022-10-04T15:41:35;19.20;71.80
913;DHT22;443;51.448;7.028;2022-10-04T15:47:14;19.20;72.00
913;DHT22;443;51.448;7.028;2022-10-04T15:49:59;19.30;71.80
913;DHT22;443;51.448;7.028;2022-10-04T15:53:11;19.20;71.70
913;DHT22;443;51.448;7.028;2022-10-04T15:56:03;19.30;71.50
913;DHT22;443;51.448;7.028;2022-10-04T15:58:54;19.40;71.20
913;DHT22;443;51.448;7.028;2022-10-04T16:01:35;19.30;71.60
913;DHT22;443;51.448;7.028;2022-10-04T16:04:34;19.30;71.90
913;DHT22;443;51.448;7.028;2022-10-04T16:07:20;19.20;72.00
913;DHT22;443;51.448;7.028;2022-10-04T16:09:53;19.20;72.00
913;DHT22;443;51.448;7.028;2022-10-04T16:12:26;19.10;72.30
913;DHT22;443;51.448;7.028;2022-10-04T16:15:10;19.00;72.60
913;DHT22;443;51.448;7.028;2022-10-04T16:18:00;18.90;73.00
913;DHT22;443;51.448;7.028;2022-10-04T16:20:47;18.80;73.30
913;DHT22;443;51.448;7.028;2022-10-04T16:23:26;18.80;73.50
913;DHT22;443;51.448;7.028;2022-10-04T16:25:56;18.70;73.80
913;DHT22;443;51.448;7.028;2022-10-04T16:28:44;18.70;74.00
913;DHT22;443;51.448;7.028;2022-10-04T16:31:24;18.60;74.10
913;DHT22;443;51.448;7.028;2022-10-04T16:33:57;18.60;74.70
913;DHT22;443;51.448;7.028;2022-10-04T16:36:41;18.60;74.40
913;DHT22;443;51.448;7.028;2022-10-04T16:39:10;18.50;74.50
913;DHT22;443;51.448;7.028;2022-10-04T16:41:58;18.50;74.50
913;DHT22;443;51.448;7.028;2022-10-04T16:44:33;18.50;74.70
913;DHT22;443;51.448;7.028;2022-10-04T16:47:16;18.50;74.80
913;DHT22;443;51.448;7.028;2022-10-04T16:49:48;18.40;74.80
913;DHT22;443;51.448;7.028;2022-10-04T16:52:26;18.40;75.00
913;DHT22;443;51.448;7.028;2022-10-04T16:55:24;18.40;75.00
913;DHT22;443;51.448;7.028;2022-10-04T17:04:43;18.40;75.20
913;DHT22;443;51.448;7.028;2022-10-04T17:07:23;18.30;75.20
913;DHT22;443;51.448;7.028;2022-10-04T17:09:56;18.30;75.30
913;DHT22;443;51.448;7.028;2022-10-04T17:12:32;18.30;75.50
913;DHT22;443;51.448;7.028;2022-10-04T17:18:14;18.30;75.80
913;DHT22;443;51.448;7.028;2022-10-04T17:20:52;18.20;75.80
913;DHT22;443;51.448;7.028;2022-10-04T17:23:42;18.20;75.90
913;DHT22;443;51.448;7.028;2022-10-04T17:26:23;18.20;75.90
913;DHT22;443;51.448;7.028;2022-10-04T17:28:56;18.20;76.00
913;DHT22;443;51.448;7.028;2022-10-04T17:31:30;18.10;76.00
913;DHT22;443;51.448;7.028;2022-10-04T17:34:05;18.20;76.20
913;DHT22;443;51.448;7.028;2022-10-04T17:36:37;18.10;76.10
913;DHT22;443;51.448;7.028;2022-10-04T17:39:16;18.10;76.20
913;DHT22;443;51.448;7.028;2022-10-04T17:41:58;18.10;76.30
913;DHT22;443;51.448;7.028;2022-10-04T17:44:39;18.10;76.40
913;DHT22;443;51.448;7.028;2022-10-04T17:47:12;18.10;76.40
913;DHT22;443;51.448;7.028;2022-10-04T17:49:54;18.10;76.50
913;DHT22;443;51.448;7.028;2022-10-04T17:52:47;18.10;76.60
913;DHT22;443;51.448;7.028;2022-10-04T17:55:42;18.00;76.50
913;DHT22;443;51.448;7.028;2022-10-04T17:58:15;18.00;76.60
913;DHT22;443;51.448;7.028;2022-10-04T18:00:52;18.00;76.70
913;DHT22;443;51.448;7.028;2022-10-04T18:03:25;18.00;76.60
913;DHT22;443;51.448;7.028;2022-10-04T18:06:01;18.00;76.70
913;DHT22;443;51.448;7.028;2022-10-04T18:08:40;18.00;76.80
913;DHT22;443;51.448;7.028;2022-10-04T18:11:17;18.00;76.80
913;DHT22;443;51.448;7.028;2022-10-04T18:13:49;18.00;76.90
913;DHT22;443;51.448;7.028;2022-10-04T18:16:21;18.00;76.90
913;DHT22;443;51.448;7.028;2022-10-04T18:18:49;18.00;77.00
913;DHT22;443;51.448;7.028;2022-10-04T18:21:23;18.00;77.00
913;DHT22;443;51.448;7.028;2022-10-04T18:23:58;17.90;77.00
913;DHT22;443;51.448;7.028;2022-10-04T18:26:28;17.90;77.00
913;DHT22;443;51.448;7.028;2022-10-04T18:28:58;17.90;77.10
913;DHT22;443;51.448;7.028;2022-10-04T18:31:30;17.90;77.20
913;DHT22;443;51.448;7.028;2022-10-04T18:34:02;17.90;77.20
913;DHT22;443;51.448;7.028;2022-10-04T18:36:52;17.90;77.30
913;DHT22;443;51.448;7.028;2022-10-04T18:39:21;17.90;77.30
913;DHT22;443;51.448;7.028;2022-10-04T18:42:06;17.90;77.40
913;DHT22;443;51.448;7.028;2022-10-04T18:44:45;17.90;77.40
913;DHT22;443;51.448;7.028;2022-10-04T18:47:16;17.80;77.40
913;DHT22;443;51.448;7.028;2022-10-04T18:49:47;17.80;77.40
913;DHT22;443;51.448;7.028;2022-10-04T18:52:26;17.80;77.60
913;DHT22;443;51.448;7.028;2022-10-04T18:55:11;17.80;77.60
913;DHT22;443;51.448;7.028;2022-10-04T18:57:40;17.80;77.60
913;DHT22;443;51.448;7.028;2022-10-04T19:00:22;17.80;77.70
913;DHT22;443;51.448;7.028;2022-10-04T19:03:14;17.80;77.70
913;DHT22;443;51.448;7.028;2022-10-04T19:05:48;17.80;77.70
913;DHT22;443;51.448;7.028;2022-10-04T19:08:28;17.80;77.60
913;DHT22;443;51.448;7.028;2022-10-04T19:11:02;17.80;77.80
913;DHT22;443;51.448;7.028;2022-10-04T19:13:36;17.80;77.90
913;DHT22;443;51.448;7.028;2022-10-04T19:16:14;17.80;77.90
913;DHT22;443;51.448;7.028;2022-10-04T19:18:56;17.70;77.90
913;DHT22;443;51.448;7.028;2022-10-04T19:21:32;17.70;78.00
913;DHT22;443;51.448;7.028;2022-10-04T19:27:05;17.70;78.00
913;DHT22;443;51.448;7.028;2022-10-04T19:29:45;17.70;78.10
913;DHT22;443;51.448;7.028;2022-10-04T19:32:25;17.60;77.70
913;DHT22;443;51.448;7.028;2022-10-04T19:35:01;17.60;77.80
913;DHT22;443;51.448;7.028;2022-10-04T19:37:34;17.60;78.20
913;DHT22;443;51.448;7.028;2022-10-04T19:40:11;17.60;78.00
913;DHT22;443;51.448;7.028;2022-10-04T19:42:48;17.50;78.30
913;DHT22;443;51.448;7.028;2022-10-04T19:45:29;17.60;78.30
913;DHT22;443;51.448;7.028;2022-10-04T19:47:59;17.60;78.20